createdAt,value
2019-01-16T00:01:07.165Z,966.71
2019-01-16T00:02:17.226Z,966.66
2019-01-16T00:03:27.135Z,966.75
2019-01-16T00:04:37.046Z,966.72
2019-01-16T00:05:46.957Z,966.7
2019-01-16T00:06:56.861Z,966.71
2019-01-16T00:08:06.885Z,966.7
2019-01-16T00:09:16.798Z,966.7
2019-01-16T00:10:26.727Z,966.74
2019-01-16T00:11:36.636Z,966.66
2019-01-16T00:12:46.547Z,966.65
2019-01-16T00:13:56.513Z,966.63
2019-01-16T00:15:06.424Z,966.65
2019-01-16T00:16:16.334Z,966.65
2019-01-16T00:17:26.248Z,966.6
2019-01-16T00:18:36.159Z,966.64
2019-01-16T00:19:46.168Z,966.63
2019-01-16T00:20:56.148Z,966.64
2019-01-16T00:22:06.061Z,966.66
2019-01-16T00:23:15.967Z,966.67
2019-01-16T00:24:25.879Z,966.67
2019-01-16T00:25:35.899Z,966.69
2019-01-16T00:26:45.810Z,966.67
2019-01-16T00:27:55.463Z,966.64
2019-01-16T00:29:05.374Z,966.61
2019-01-16T00:30:15.283Z,966.61
2019-01-16T00:31:25.292Z,966.61
2019-01-16T00:32:35.204Z,966.58
2019-01-16T00:33:45.110Z,966.62
2019-01-16T00:34:55.019Z,966.6
2019-01-16T00:36:04.929Z,966.57
2019-01-16T00:37:14.933Z,966.58
2019-01-16T00:38:24.841Z,966.61
2019-01-16T00:39:34.748Z,966.58
2019-01-16T00:40:44.664Z,966.55
2019-01-16T00:41:54.626Z,966.55
2019-01-16T00:43:04.582Z,966.57
2019-01-16T00:44:14.239Z,966.54
2019-01-16T00:45:24.151Z,966.54
2019-01-16T00:46:34.059Z,966.57
2019-01-16T00:47:43.978Z,966.53
2019-01-16T00:48:53.883Z,966.54
2019-01-16T00:50:03.792Z,966.52
2019-01-16T00:51:13.721Z,966.56
2019-01-16T00:52:23.638Z,966.58
2019-01-16T00:53:33.601Z,966.58
2019-01-16T00:54:43.555Z,966.56
2019-01-16T00:55:53.462Z,966.55
2019-01-16T00:57:03.366Z,966.6
2019-01-16T00:58:13.275Z,966.53
2019-01-16T00:59:23.254Z,966.49
2019-01-16T01:00:33.662Z,966.53
2019-01-16T01:01:43.575Z,966.51
2019-01-16T01:02:53.482Z,966.45
2019-01-16T01:04:03.402Z,966.43
2019-01-16T01:05:13.314Z,966.38
2019-01-16T01:06:23.288Z,966.36
2019-01-16T01:07:33.200Z,966.45
2019-01-16T01:08:43.111Z,966.44
2019-01-16T01:09:53.019Z,966.47
2019-01-16T01:11:02.950Z,966.48
2019-01-16T01:12:12.608Z,966.49
2019-01-16T01:13:22.529Z,966.46
2019-01-16T01:14:32.489Z,966.48
2019-01-16T01:15:42.396Z,966.49
2019-01-16T01:16:52.314Z,966.51
2019-01-16T01:18:02.224Z,966.56
2019-01-16T01:19:12.140Z,966.54
2019-01-16T01:20:22.048Z,966.64
2019-01-16T01:21:31.707Z,966.66
2019-01-16T01:22:41.367Z,966.71
2019-01-16T01:23:52.040Z,966.75
2019-01-16T01:25:01.800Z,966.68
2019-01-16T01:26:11.709Z,966.63
2019-01-16T01:27:21.620Z,966.62
2019-01-16T01:28:31.534Z,966.62
2019-01-16T01:29:41.549Z,966.56
2019-01-16T01:30:51.456Z,966.55
2019-01-16T01:32:01.371Z,966.58
2019-01-16T01:33:11.300Z,966.56
2019-01-16T01:34:21.551Z,966.57
2019-01-16T01:35:31.505Z,966.61
2019-01-16T01:36:41.410Z,966.57
2019-01-16T01:37:51.371Z,966.63
2019-01-16T01:39:01.280Z,966.53
2019-01-16T01:40:11.187Z,966.53
2019-01-16T01:41:21.146Z,966.56
2019-01-16T01:42:31.056Z,966.57
2019-01-16T01:43:40.966Z,966.57
2019-01-16T01:44:50.880Z,966.58
2019-01-16T01:46:00.803Z,966.5
2019-01-16T01:47:10.811Z,966.56
2019-01-16T01:48:20.721Z,966.53
2019-01-16T01:49:30.630Z,966.56
2019-01-16T01:50:40.539Z,966.6
2019-01-16T01:51:50.447Z,966.56
2019-01-16T01:53:00.410Z,966.53
2019-01-16T01:54:10.069Z,966.57
2019-01-16T01:55:19.990Z,966.51
2019-01-16T01:56:29.900Z,966.53
2019-01-16T01:57:39.805Z,966.49
2019-01-16T01:58:49.715Z,966.49
2019-01-16T01:59:59.623Z,966.48
2019-01-16T02:01:09.531Z,966.49
2019-01-16T02:02:19.448Z,966.46
2019-01-16T02:03:29.358Z,966.45
2019-01-16T02:04:39.378Z,966.43
2019-01-16T02:05:49.282Z,966.39
2019-01-16T02:06:59.189Z,966.39
2019-01-16T02:08:09.097Z,966.39
2019-01-16T02:09:19.008Z,966.4
2019-01-16T02:10:29.016Z,966.37
2019-01-16T02:11:38.978Z,966.38
2019-01-16T02:12:48.885Z,966.39
2019-01-16T02:13:58.794Z,966.39
2019-01-16T02:15:08.702Z,966.37
2019-01-16T02:16:18.666Z,966.38
2019-01-16T02:17:28.581Z,966.39
2019-01-16T02:18:38.493Z,966.36
2019-01-16T02:19:54.942Z,966.32
2019-01-16T02:21:04.856Z,966.34
2019-01-16T02:22:14.815Z,966.35
2019-01-16T02:23:24.745Z,966.33
2019-01-16T02:24:34.680Z,966.25
2019-01-16T02:25:44.587Z,966.3
2019-01-16T02:26:54.502Z,966.32
2019-01-16T02:28:04.511Z,966.28
2019-01-16T02:29:14.422Z,966.28
2019-01-16T02:30:24.330Z,966.29
2019-01-16T02:31:34.247Z,966.27
2019-01-16T02:32:44.176Z,966.28
2019-01-16T02:33:54.189Z,966.25
2019-01-16T02:35:04.105Z,966.21
2019-01-16T02:36:14.027Z,966.25
2019-01-16T02:37:23.943Z,966.26
2019-01-16T02:38:33.858Z,966.24
2019-01-16T02:39:43.829Z,966.25
2019-01-16T02:40:53.761Z,966.24
2019-01-16T02:42:03.717Z,966.26
2019-01-16T02:43:13.630Z,966.15
2019-01-16T02:44:23.550Z,966.12
2019-01-16T02:45:33.557Z,966.09
2019-01-16T02:46:43.471Z,966.09
2019-01-16T02:47:53.393Z,966.05
2019-01-16T02:49:03.423Z,966.04
2019-01-16T02:50:13.356Z,965.96
2019-01-16T02:51:23.387Z,965.95
2019-01-16T02:52:33.306Z,965.93
2019-01-16T02:53:43.226Z,965.96
2019-01-16T02:54:52.885Z,965.96
2019-01-16T02:56:02.795Z,965.91
2019-01-16T02:57:12.808Z,965.9
2019-01-16T02:58:22.715Z,965.91
2019-01-16T02:59:32.675Z,965.88
2019-01-16T03:00:42.581Z,965.83
2019-01-16T03:01:52.500Z,965.82
2019-01-16T03:03:02.570Z,965.77
2019-01-16T03:04:12.476Z,965.79
2019-01-16T03:05:22.445Z,965.73
2019-01-16T03:06:32.355Z,965.69
2019-01-16T03:07:42.283Z,965.68
2019-01-16T03:08:51.950Z,965.64
2019-01-16T03:10:01.860Z,965.63
2019-01-16T03:11:11.775Z,965.63
2019-01-16T03:12:21.689Z,965.57
2019-01-16T03:13:31.605Z,965.55
2019-01-16T03:14:41.621Z,965.62
2019-01-16T03:15:51.530Z,965.59
2019-01-16T03:17:01.436Z,965.59
2019-01-16T03:18:11.106Z,965.59
2019-01-16T03:19:20.779Z,965.58
2019-01-16T03:20:30.787Z,965.56
2019-01-16T03:21:40.717Z,965.48
2019-01-16T03:22:50.647Z,965.51
2019-01-16T03:24:00.561Z,965.47
2019-01-16T03:25:10.474Z,965.44
2019-01-16T03:26:20.489Z,965.46
2019-01-16T03:27:30.419Z,965.44
2019-01-16T03:28:40.332Z,965.48
2019-01-16T03:29:50.254Z,965.47
2019-01-16T03:31:00.186Z,965.45
2019-01-16T03:32:10.438Z,965.48
2019-01-16T03:33:20.422Z,965.38
2019-01-16T03:34:30.349Z,965.37
2019-01-16T03:35:40.261Z,965.33
2019-01-16T03:36:50.176Z,965.25
2019-01-16T03:38:00.212Z,965.25
2019-01-16T03:39:10.130Z,965.24
2019-01-16T03:40:20.040Z,965.2
2019-01-16T03:41:30.010Z,965.2
2019-01-16T03:42:39.927Z,965.21
2019-01-16T03:43:49.900Z,965.22
2019-01-16T03:44:59.811Z,965.19
2019-01-16T03:46:09.750Z,965.23
2019-01-16T03:47:19.676Z,965.19
2019-01-16T03:48:29.585Z,965.19
2019-01-16T03:49:39.593Z,965.18
2019-01-16T03:50:49.506Z,965.2
2019-01-16T03:51:59.419Z,965.2
2019-01-16T03:53:09.331Z,965.23
2019-01-16T03:54:19.246Z,965.21
2019-01-16T03:55:29.379Z,965.21
2019-01-16T03:56:39.340Z,965.14
2019-01-16T03:57:49.254Z,965.18
2019-01-16T03:58:59.163Z,965.13
2019-01-16T04:00:09.071Z,965.09
2019-01-16T04:01:18.982Z,965.08
2019-01-16T04:02:28.895Z,965.07
2019-01-16T04:03:38.808Z,965.05
2019-01-16T04:04:48.725Z,965.07
2019-01-16T04:05:58.636Z,965.06
2019-01-16T04:07:08.650Z,965.06
2019-01-16T04:08:18.559Z,965.11
2019-01-16T04:09:28.473Z,965.08
2019-01-16T04:10:38.466Z,965.03
2019-01-16T04:11:48.375Z,965.06
2019-01-16T04:12:58.386Z,965
2019-01-16T04:14:08.316Z,965.01
2019-01-16T04:15:18.229Z,965.04
2019-01-16T04:16:28.164Z,964.99
2019-01-16T04:17:38.086Z,965.04
2019-01-16T04:18:48.098Z,965.05
2019-01-16T04:19:58.015Z,965.05
2019-01-16T04:21:07.928Z,965.04
2019-01-16T04:22:17.851Z,965
2019-01-16T04:23:27.787Z,965.04
2019-01-16T04:24:37.798Z,965.05
2019-01-16T04:25:47.709Z,965
2019-01-16T04:26:58.450Z,964.99
2019-01-16T04:28:08.444Z,964.99
2019-01-16T04:29:18.368Z,964.95
2019-01-16T04:30:28.381Z,964.97
2019-01-16T04:31:38.292Z,964.92
2019-01-16T04:32:48.201Z,964.91
2019-01-16T04:33:58.116Z,964.89
2019-01-16T04:35:08.028Z,964.95
2019-01-16T04:36:18.044Z,964.93
2019-01-16T04:37:27.955Z,964.92
2019-01-16T04:38:37.864Z,964.92
2019-01-16T04:39:47.777Z,964.89
2019-01-16T04:40:57.683Z,964.87
2019-01-16T04:42:07.654Z,964.84
2019-01-16T04:43:17.567Z,964.86
2019-01-16T04:44:27.471Z,964.79
2019-01-16T04:45:37.411Z,964.8
2019-01-16T04:46:47.323Z,964.76
2019-01-16T04:47:57.336Z,964.76
2019-01-16T04:49:07.252Z,964.71
2019-01-16T04:50:17.167Z,964.68
2019-01-16T04:51:27.078Z,964.67
2019-01-16T04:52:36.997Z,964.62
2019-01-16T04:53:46.966Z,964.58
2019-01-16T04:54:56.953Z,964.56
2019-01-16T04:56:06.870Z,964.56
2019-01-16T04:57:16.789Z,964.52
2019-01-16T04:58:26.694Z,964.49
2019-01-16T04:59:36.714Z,964.46
2019-01-16T05:00:46.627Z,964.52
2019-01-16T05:01:56.547Z,964.49
2019-01-16T05:03:06.220Z,964.46
2019-01-16T05:04:16.131Z,964.5
2019-01-16T05:05:25.838Z,964.44
2019-01-16T05:06:35.759Z,964.43
2019-01-16T05:07:45.669Z,964.37
2019-01-16T05:08:55.579Z,964.32
2019-01-16T05:10:05.493Z,964.33
2019-01-16T05:11:15.255Z,964.33
2019-01-16T05:12:25.168Z,964.28
2019-01-16T05:13:37.059Z,964.25
2019-01-16T05:14:46.979Z,964.28
2019-01-16T05:15:56.642Z,964.26
2019-01-16T05:17:06.656Z,964.23
2019-01-16T05:18:16.594Z,964.16
2019-01-16T05:19:26.508Z,964.21
2019-01-16T05:20:43.941Z,964.14
2019-01-16T05:21:53.855Z,964.12
2019-01-16T05:23:03.864Z,964.09
2019-01-16T05:24:13.783Z,964.04
2019-01-16T05:25:23.699Z,964.03
2019-01-16T05:26:33.618Z,963.99
2019-01-16T05:27:43.536Z,963.99
2019-01-16T05:28:53.569Z,963.97
2019-01-16T05:30:03.483Z,963.96
2019-01-16T05:31:13.398Z,963.94
2019-01-16T05:32:23.319Z,963.92
2019-01-16T05:33:33.238Z,963.94
2019-01-16T05:34:43.215Z,963.93
2019-01-16T05:35:53.129Z,963.9
2019-01-16T05:37:03.059Z,963.82
2019-01-16T05:38:12.965Z,963.82
2019-01-16T05:39:22.627Z,963.8
2019-01-16T05:40:32.634Z,963.8
2019-01-16T05:41:42.570Z,963.74
2019-01-16T05:42:52.490Z,963.73
2019-01-16T05:44:02.411Z,963.69
2019-01-16T05:45:12.708Z,963.71
2019-01-16T05:46:22.722Z,963.62
2019-01-16T05:47:32.636Z,963.61
2019-01-16T05:48:42.558Z,963.57
2019-01-16T05:49:52.464Z,963.56
2019-01-16T05:51:02.384Z,963.52
2019-01-16T05:52:12.396Z,963.52
2019-01-16T05:53:22.368Z,963.46
2019-01-16T05:54:32.276Z,963.46
2019-01-16T05:55:42.187Z,963.43
2019-01-16T05:56:52.126Z,963.42
2019-01-16T05:58:02.097Z,963.4
2019-01-16T05:59:12.022Z,963.41
2019-01-16T06:00:21.940Z,963.38
2019-01-16T06:01:31.848Z,963.36
2019-01-16T06:02:41.763Z,963.32
2019-01-16T06:03:51.775Z,963.31
2019-01-16T06:05:01.680Z,963.27
2019-01-16T06:06:11.588Z,963.26
2019-01-16T06:07:21.506Z,963.25
2019-01-16T06:08:31.422Z,963.2
2019-01-16T06:09:41.393Z,963.15
2019-01-16T06:10:51.313Z,963.13
2019-01-16T06:12:01.234Z,963.09
2019-01-16T06:13:11.141Z,963.07
2019-01-16T06:14:21.046Z,963.04
2019-01-16T06:15:31.226Z,963.06
2019-01-16T06:16:41.134Z,963.05
2019-01-16T06:17:51.050Z,963.05
2019-01-16T06:19:00.954Z,963
2019-01-16T06:20:10.862Z,962.97
2019-01-16T06:21:20.870Z,962.99
2019-01-16T06:22:30.781Z,962.96
2019-01-16T06:23:40.697Z,962.94
2019-01-16T06:24:50.608Z,962.96
2019-01-16T06:26:00.655Z,962.94
2019-01-16T06:27:10.711Z,962.95
2019-01-16T06:28:20.372Z,962.89
2019-01-16T06:29:30.285Z,962.84
2019-01-16T06:30:40.206Z,962.82
2019-01-16T06:31:50.115Z,962.82
2019-01-16T06:33:00.072Z,962.79
2019-01-16T06:34:09.981Z,962.73
2019-01-16T06:35:19.897Z,962.69
2019-01-16T06:36:29.816Z,962.7
2019-01-16T06:37:39.733Z,962.68
2019-01-16T06:38:49.694Z,962.59
2019-01-16T06:39:59.353Z,962.58
2019-01-16T06:41:09.274Z,962.53
2019-01-16T06:42:19.185Z,962.47
2019-01-16T06:43:29.152Z,962.46
2019-01-16T06:44:39.163Z,962.39
2019-01-16T06:45:49.092Z,962.4
2019-01-16T06:46:59.000Z,962.38
2019-01-16T06:48:08.909Z,962.36
2019-01-16T06:49:18.818Z,962.32
2019-01-16T06:50:28.826Z,962.28
2019-01-16T06:51:38.735Z,962.2
2019-01-16T06:52:48.645Z,962.18
2019-01-16T06:53:58.563Z,962.21
2019-01-16T06:55:08.474Z,962.2
2019-01-16T06:56:18.439Z,962.17
2019-01-16T06:57:29.074Z,962.16
2019-01-16T06:58:39.084Z,962.14
2019-01-16T06:59:48.994Z,962.1
2019-01-16T07:00:58.902Z,962
2019-01-16T07:02:08.912Z,961.98
2019-01-16T07:03:18.824Z,961.95
2019-01-16T07:04:28.729Z,961.87
2019-01-16T07:05:38.639Z,961.82
2019-01-16T07:06:48.548Z,961.79
2019-01-16T07:07:58.561Z,961.79
2019-01-16T07:09:08.471Z,961.77
2019-01-16T07:10:18.381Z,961.75
2019-01-16T07:11:28.294Z,961.7
2019-01-16T07:12:38.210Z,961.68
2019-01-16T07:13:48.119Z,961.64
2019-01-16T07:14:58.091Z,961.59
2019-01-16T07:16:08.003Z,961.6
2019-01-16T07:17:17.909Z,961.52
2019-01-16T07:18:27.824Z,961.48
2019-01-16T07:19:37.883Z,961.45
2019-01-16T07:20:47.790Z,961.43
2019-01-16T07:21:57.704Z,961.44
2019-01-16T07:23:07.614Z,961.41
2019-01-16T07:24:17.521Z,961.44
2019-01-16T07:25:27.281Z,961.4
2019-01-16T07:26:37.195Z,961.45
2019-01-16T07:27:47.105Z,961.41
2019-01-16T07:28:57.016Z,961.42
2019-01-16T07:30:06.962Z,961.33
2019-01-16T07:31:16.875Z,961.33
2019-01-16T07:32:26.787Z,961.36
2019-01-16T07:33:36.703Z,961.34
2019-01-16T07:34:46.610Z,961.31
2019-01-16T07:35:56.531Z,961.35
2019-01-16T07:37:06.502Z,961.32
2019-01-16T07:38:16.411Z,961.26
2019-01-16T07:39:26.319Z,961.24
2019-01-16T07:40:35.979Z,961.26
2019-01-16T07:41:45.888Z,961.25
2019-01-16T07:42:55.903Z,961.24
2019-01-16T07:44:05.829Z,961.27
2019-01-16T07:45:15.792Z,961.26
2019-01-16T07:46:25.703Z,961.21
2019-01-16T07:47:35.611Z,961.17
2019-01-16T07:48:45.628Z,961.15
2019-01-16T07:49:55.536Z,961.17
2019-01-16T07:51:05.449Z,961.16
2019-01-16T07:52:15.354Z,961.15
2019-01-16T07:53:25.273Z,961.12
2019-01-16T07:54:35.248Z,961.12
2019-01-16T07:55:45.235Z,961.1
2019-01-16T07:56:55.205Z,961.08
2019-01-16T07:58:05.118Z,961.07
2019-01-16T07:59:21.508Z,961.13
2019-01-16T08:00:31.720Z,961.08
2019-01-16T08:01:41.640Z,961.06
2019-01-16T08:02:51.550Z,961.07
2019-01-16T08:04:02.541Z,961.06
2019-01-16T08:05:12.452Z,961.12
2019-01-16T08:06:22.411Z,961.11
2019-01-16T08:07:32.323Z,961.14
2019-01-16T08:08:41.979Z,961.03
2019-01-16T08:09:51.886Z,961.06
2019-01-16T08:11:01.796Z,960.96
2019-01-16T08:12:11.805Z,960.91
2019-01-16T08:13:21.719Z,960.86
2019-01-16T08:14:31.635Z,960.82
2019-01-16T08:15:41.557Z,960.82
2019-01-16T08:16:51.464Z,960.78
2019-01-16T08:18:01.525Z,960.75
2019-01-16T08:19:11.441Z,960.74
2019-01-16T08:20:24.995Z,960.73
2019-01-16T08:21:35.134Z,960.7
2019-01-16T08:22:45.045Z,960.67
2019-01-16T08:23:55.106Z,960.67
2019-01-16T08:25:05.020Z,960.68
2019-01-16T08:26:14.928Z,960.68
2019-01-16T08:27:24.837Z,960.71
2019-01-16T08:28:34.744Z,960.68
2019-01-16T08:29:44.750Z,960.68
2019-01-16T08:30:54.655Z,960.67
2019-01-16T08:32:04.591Z,960.64
2019-01-16T08:33:14.503Z,960.57
2019-01-16T08:34:24.422Z,960.52
2019-01-16T08:35:34.384Z,960.54
2019-01-16T08:36:44.298Z,960.54
2019-01-16T08:37:54.209Z,960.53
2019-01-16T08:39:04.123Z,960.49
2019-01-16T08:40:14.029Z,960.43
2019-01-16T08:41:24.091Z,960.38
2019-01-16T08:42:34.068Z,960.37
2019-01-16T08:43:43.987Z,960.37
2019-01-16T08:44:53.897Z,960.36
2019-01-16T08:46:03.820Z,960.28
2019-01-16T08:47:13.833Z,960.22
2019-01-16T08:48:23.745Z,960.17
2019-01-16T08:49:33.684Z,960.18
2019-01-16T08:50:43.591Z,960.15
2019-01-16T08:51:53.510Z,960.11
2019-01-16T08:53:03.478Z,960.09
2019-01-16T08:54:13.393Z,960.08
2019-01-16T08:55:23.335Z,960.08
2019-01-16T08:56:33.258Z,960.08
2019-01-16T08:57:43.178Z,960.01
2019-01-16T08:58:53.087Z,959.93
2019-01-16T09:00:03.004Z,959.92
2019-01-16T09:01:12.918Z,959.94
2019-01-16T09:02:22.838Z,959.91
2019-01-16T09:03:32.746Z,959.82
2019-01-16T09:04:42.753Z,959.85
2019-01-16T09:05:52.658Z,959.84
2019-01-16T09:07:02.570Z,959.83
2019-01-16T09:08:12.481Z,959.78
2019-01-16T09:09:22.394Z,959.81
2019-01-16T09:10:32.355Z,959.79
2019-01-16T09:11:43.074Z,959.8
2019-01-16T09:12:53.119Z,959.8
2019-01-16T09:14:03.049Z,959.73
2019-01-16T09:15:12.960Z,959.75
2019-01-16T09:16:22.968Z,959.72
2019-01-16T09:17:32.872Z,959.71
2019-01-16T09:18:42.886Z,959.65
2019-01-16T09:19:52.792Z,959.69
2019-01-16T09:21:02.710Z,959.59
2019-01-16T09:22:12.624Z,959.6
2019-01-16T09:23:22.539Z,959.57
2019-01-16T09:24:32.456Z,959.6
2019-01-16T09:25:42.362Z,959.49
2019-01-16T09:26:52.285Z,959.49
2019-01-16T09:28:02.293Z,959.41
2019-01-16T09:29:12.204Z,959.43
2019-01-16T09:30:22.119Z,959.41
2019-01-16T09:31:32.244Z,959.36
2019-01-16T09:32:42.155Z,959.3
2019-01-16T09:33:52.113Z,959.25
2019-01-16T09:35:02.019Z,959.18
2019-01-16T09:36:11.930Z,959.16
2019-01-16T09:37:21.842Z,959.16
2019-01-16T09:38:31.822Z,959.13
2019-01-16T09:39:41.838Z,959.12
2019-01-16T09:40:51.536Z,959.08
2019-01-16T09:42:01.542Z,958.98
2019-01-16T09:43:12.708Z,959.01
2019-01-16T09:44:22.891Z,959.04
2019-01-16T09:45:33.145Z,959
2019-01-16T09:46:43.055Z,959.04
2019-01-16T09:47:52.868Z,959.02
2019-01-16T09:49:02.799Z,958.98
2019-01-16T09:50:12.787Z,959
2019-01-16T09:51:22.780Z,958.94
2019-01-16T09:52:32.886Z,958.94
2019-01-16T09:53:42.898Z,958.96
2019-01-16T09:54:53.787Z,958.93
2019-01-16T09:56:03.753Z,958.98
2019-01-16T09:57:13.486Z,958.92
2019-01-16T09:58:23.265Z,958.88
2019-01-16T09:59:33.311Z,958.9
2019-01-16T10:00:43.479Z,958.83
2019-01-16T10:01:53.313Z,958.87
2019-01-16T10:03:03.758Z,958.89
2019-01-16T10:04:13.675Z,958.89
2019-01-16T10:05:23.615Z,958.88
2019-01-16T10:06:33.531Z,958.82
2019-01-16T10:07:43.447Z,958.84
2019-01-16T10:08:53.256Z,958.77
2019-01-16T10:10:03.162Z,958.78
2019-01-16T10:11:13.074Z,958.77
2019-01-16T10:12:23.038Z,958.67
2019-01-16T10:13:32.954Z,958.64
2019-01-16T10:14:42.923Z,958.6
2019-01-16T10:15:52.924Z,958.56
2019-01-16T10:17:02.841Z,958.55
2019-01-16T10:18:12.753Z,958.5
2019-01-16T10:19:22.665Z,958.49
2019-01-16T10:20:32.744Z,958.43
2019-01-16T10:21:56.003Z,958.43
2019-01-16T10:23:05.916Z,958.43
2019-01-16T10:24:15.829Z,958.39
2019-01-16T10:25:25.789Z,958.39
2019-01-16T10:26:35.848Z,958.32
2019-01-16T10:27:45.791Z,958.23
2019-01-16T10:28:55.706Z,958.2
2019-01-16T10:30:05.621Z,958.19
2019-01-16T10:31:15.686Z,958.21
2019-01-16T10:32:25.592Z,958.24
2019-01-16T10:33:35.521Z,958.23
2019-01-16T10:34:45.433Z,958.23
2019-01-16T10:35:55.351Z,958.29
2019-01-16T10:37:05.264Z,958.27
2019-01-16T10:38:15.181Z,958.26
2019-01-16T10:39:25.088Z,958.29
2019-01-16T10:40:34.995Z,958.19
2019-01-16T10:41:44.935Z,958.14
2019-01-16T10:42:54.992Z,958.16
2019-01-16T10:44:04.899Z,958.05
2019-01-16T10:45:14.812Z,957.99
2019-01-16T10:46:26.121Z,957.93
2019-01-16T10:47:36.033Z,957.81
2019-01-16T10:48:49.757Z,957.82
2019-01-16T10:49:59.672Z,957.81
2019-01-16T10:51:09.332Z,957.74
2019-01-16T10:52:19.241Z,957.75
2019-01-16T10:53:29.158Z,957.69
2019-01-16T10:54:39.064Z,957.59
2019-01-16T10:55:48.978Z,957.57
2019-01-16T10:56:58.893Z,957.47
2019-01-16T10:58:08.799Z,957.47
2019-01-16T10:59:18.715Z,957.39
2019-01-16T11:00:28.748Z,957.35
2019-01-16T11:01:38.670Z,957.26
2019-01-16T11:02:48.583Z,957.24
2019-01-16T11:03:58.489Z,957.23
2019-01-16T11:05:08.397Z,957.16
2019-01-16T11:06:18.632Z,957.07
2019-01-16T11:07:28.607Z,956.98
2019-01-16T11:08:38.514Z,956.92
2019-01-16T11:09:48.423Z,956.89
2019-01-16T11:10:58.332Z,956.84
2019-01-16T11:12:16.599Z,956.76
2019-01-16T11:13:26.586Z,956.67
2019-01-16T11:14:36.916Z,956.67
2019-01-16T11:15:46.825Z,956.64
2019-01-16T11:16:56.993Z,956.57
2019-01-16T11:18:06.925Z,956.57
2019-01-16T11:19:16.831Z,956.52
2019-01-16T11:20:26.746Z,956.5
2019-01-16T11:21:36.655Z,956.46
2019-01-16T11:22:46.563Z,956.38
2019-01-16T11:23:56.571Z,956.33
2019-01-16T11:25:06.486Z,956.27
2019-01-16T11:26:16.398Z,956.19
2019-01-16T11:27:26.309Z,956.19
2019-01-16T11:28:36.271Z,956.21
2019-01-16T11:29:46.287Z,956.23
2019-01-16T11:30:56.199Z,956.19
2019-01-16T11:32:06.125Z,956.17
2019-01-16T11:33:16.051Z,956.18
2019-01-16T11:34:25.702Z,956.18
2019-01-16T11:35:35.649Z,956.17
2019-01-16T11:36:45.321Z,956.17
2019-01-16T11:37:54.981Z,956.17
2019-01-16T11:39:04.890Z,956.16
2019-01-16T11:40:14.811Z,956.16
2019-01-16T11:41:24.722Z,956.23
2019-01-16T11:42:34.633Z,956.18
2019-01-16T11:43:44.548Z,956.14
2019-01-16T11:44:54.456Z,956.15
2019-01-16T11:46:04.427Z,956.15
2019-01-16T11:47:14.443Z,956.12
2019-01-16T11:48:24.354Z,956.1
2019-01-16T11:49:34.271Z,956.02
2019-01-16T11:50:44.331Z,955.96
2019-01-16T11:51:54.248Z,955.9
2019-01-16T11:53:04.307Z,955.83
2019-01-16T11:54:15.106Z,955.75
2019-01-16T11:55:25.038Z,955.72
2019-01-16T11:56:34.946Z,955.72
2019-01-16T11:57:44.864Z,955.75
2019-01-16T11:58:54.833Z,955.69
2019-01-16T12:00:04.744Z,955.69
2019-01-16T12:01:14.658Z,955.74
2019-01-16T12:02:24.566Z,955.65
2019-01-16T12:03:41.253Z,955.62
2019-01-16T12:04:51.272Z,955.53
2019-01-16T12:06:01.196Z,955.49
2019-01-16T12:07:11.115Z,955.43
2019-01-16T12:08:21.100Z,955.36
2019-01-16T12:09:31.012Z,955.35
2019-01-16T12:10:41.079Z,955.33
2019-01-16T12:11:51.001Z,955.25
2019-01-16T12:13:00.915Z,955.26
2019-01-16T12:14:10.828Z,955.23
2019-01-16T12:15:20.738Z,955.3
2019-01-16T12:16:30.753Z,955.34
2019-01-16T12:17:40.419Z,955.37
2019-01-16T12:18:50.330Z,955.3
2019-01-16T12:20:00.239Z,955.23
2019-01-16T12:21:10.155Z,955.14
2019-01-16T12:22:26.949Z,955.01
2019-01-16T12:23:36.857Z,954.91
2019-01-16T12:24:46.783Z,954.85
2019-01-16T12:25:56.696Z,954.84
2019-01-16T12:27:13.361Z,954.78
2019-01-16T12:28:23.321Z,954.86
2019-01-16T12:29:33.231Z,954.86
2019-01-16T12:30:43.141Z,954.89
2019-01-16T12:31:53.067Z,954.88
2019-01-16T12:33:02.987Z,954.75
2019-01-16T12:34:13.004Z,954.74
2019-01-16T12:35:22.918Z,954.75
2019-01-16T12:36:32.826Z,954.72
2019-01-16T12:37:42.745Z,954.68
2019-01-16T12:38:52.655Z,954.63
2019-01-16T12:40:02.574Z,954.61
2019-01-16T12:41:14.052Z,954.6
2019-01-16T12:42:23.972Z,954.6
2019-01-16T12:43:33.890Z,954.58
2019-01-16T12:44:43.798Z,954.67
2019-01-16T12:45:53.809Z,954.66
2019-01-16T12:47:03.723Z,954.62
2019-01-16T12:48:13.632Z,954.59
2019-01-16T12:49:23.547Z,954.55
2019-01-16T12:50:33.470Z,954.5
2019-01-16T12:51:43.493Z,954.44
2019-01-16T12:52:54.184Z,954.39
2019-01-16T12:54:04.331Z,954.3
2019-01-16T12:55:14.239Z,954.28
2019-01-16T12:56:24.149Z,954.25
2019-01-16T12:57:34.111Z,954.22
2019-01-16T12:58:44.019Z,954.13
2019-01-16T12:59:53.932Z,954.12
2019-01-16T13:01:03.918Z,954.1
2019-01-16T13:02:13.593Z,954.07
2019-01-16T13:03:23.654Z,954.12
2019-01-16T13:04:33.568Z,954.1
2019-01-16T13:05:43.517Z,954.02
2019-01-16T13:06:53.484Z,953.99
2019-01-16T13:08:03.413Z,953.92
2019-01-16T13:09:13.473Z,953.91
2019-01-16T13:10:23.389Z,953.85
2019-01-16T13:11:33.349Z,953.8
2019-01-16T13:12:43.011Z,953.76
2019-01-16T13:13:52.920Z,953.68
2019-01-16T13:15:02.838Z,953.66
2019-01-16T13:16:12.759Z,953.58
2019-01-16T13:17:22.673Z,953.48
2019-01-16T13:18:32.583Z,953.41
2019-01-16T13:19:42.490Z,953.39
2019-01-16T13:20:52.406Z,953.42
2019-01-16T13:22:02.328Z,953.35
2019-01-16T13:23:12.239Z,953.35
2019-01-16T13:24:22.156Z,953.39
2019-01-16T13:25:32.074Z,953.3
2019-01-16T13:26:42.190Z,953.36
2019-01-16T13:27:52.555Z,953.38
2019-01-16T13:29:02.476Z,953.32
2019-01-16T13:30:12.390Z,953.24
2019-01-16T13:31:22.302Z,953.24
2019-01-16T13:32:32.324Z,953.2
2019-01-16T13:33:42.234Z,953.06
2019-01-16T13:34:52.142Z,953.05
2019-01-16T13:36:02.056Z,952.99
2019-01-16T13:37:11.731Z,952.89
2019-01-16T13:38:21.746Z,952.81
2019-01-16T13:39:31.652Z,952.82
2019-01-16T13:40:41.560Z,952.76
2019-01-16T13:41:51.473Z,952.68
2019-01-16T13:43:01.384Z,952.61
2019-01-16T13:44:11.429Z,952.52
2019-01-16T13:45:21.355Z,952.41
2019-01-16T13:46:31.267Z,952.39
2019-01-16T13:47:41.175Z,952.38
2019-01-16T13:48:52.730Z,952.36
2019-01-16T13:50:02.926Z,952.3
2019-01-16T13:51:12.591Z,952.35
2019-01-16T13:52:22.498Z,952.34
2019-01-16T13:53:32.412Z,952.36
2019-01-16T13:54:42.326Z,952.34
2019-01-16T13:55:52.341Z,952.36
2019-01-16T13:57:02.254Z,952.34
2019-01-16T13:58:12.173Z,952.32
2019-01-16T13:59:22.187Z,952.35
2019-01-16T14:00:32.103Z,952.3
2019-01-16T14:01:42.019Z,952.34
2019-01-16T14:02:51.931Z,952.28
2019-01-16T14:04:01.845Z,952.28
2019-01-16T14:05:11.755Z,952.21
2019-01-16T14:06:21.665Z,952.13
2019-01-16T14:07:31.678Z,952.14
2019-01-16T14:08:41.594Z,952.13
2019-01-16T14:09:51.502Z,952.13
2019-01-16T14:11:01.415Z,952.17
2019-01-16T14:12:11.329Z,952.18
2019-01-16T14:13:21.392Z,952.13
2019-01-16T14:14:31.665Z,952.12
2019-01-16T14:15:41.602Z,952.13
2019-01-16T14:16:51.512Z,952.21
2019-01-16T14:18:01.418Z,952.24
2019-01-16T14:19:11.382Z,952.26
2019-01-16T14:20:21.293Z,952.33
2019-01-16T14:21:31.200Z,952.34
2019-01-16T14:22:41.105Z,952.3
2019-01-16T14:23:51.014Z,952.35
2019-01-16T14:25:00.973Z,952.35
2019-01-16T14:26:10.882Z,952.35
2019-01-16T14:27:20.796Z,952.34
2019-01-16T14:28:30.704Z,952.27
2019-01-16T14:29:40.615Z,952.34
2019-01-16T14:30:50.580Z,952.34
2019-01-16T14:32:00.492Z,952.43
2019-01-16T14:33:10.406Z,952.47
2019-01-16T14:34:20.068Z,952.44
2019-01-16T14:35:29.976Z,952.43
2019-01-16T14:36:39.932Z,952.46